Time;durP1;ratioP1;P1;durP2;ratioP2;P2;SDS_P1;SDS_P2;PMS_P1;PMS_P2;Temp;Humidity;BMP_temperature;BMP_pressure;BME280_temperature;BME280_humidity;BME280_pressure;Samples;Min_cycle;Max_cycle;Signal;HPM_P1;HPM_P2
2021/10/01 00:02:05;;;;;;;;;;;;;;;16.20;100.00;98122.28;5016378;28;19925;-81
2021/10/01 00:04:32;;;;;;;;;;;;;;;16.21;100.00;98112.56;5033943;28;19925;-82
2021/10/01 00:07:00;;;;;;;;;;;;;;;16.27;100.00;98100.16;5016132;28;20028;-82
2021/10/01 00:09:27;;;;;;;;;;;;;;;15.82;100.00;98105.41;5015688;28;19932;-81
2021/10/01 00:11:54;;;;;;;;;;;;;;;16.45;100.00;98096.38;4999378;28;19932;-81
2021/10/01 00:14:22;;;;;;;;;;;;;;;16.15;100.00;98104.03;5034153;28;19925;-82
2021/10/01 00:16:50;;;;;;;;;;;;;;;16.27;100.00;98091.69;5016049;28;20401;-82
2021/10/01 00:19:17;;;;;;;;;;;;;;;16.37;100.00;98105.69;5033546;28;19925;-82
2021/10/01 00:21:44;;;;;;;;;;;;;;;16.47;100.00;98098.72;5033562;28;19956;-81
2021/10/01 00:24:11;;;;;;;;;;;;;;;16.20;100.00;98088.47;5000391;28;20377;-82
2021/10/01 00:26:40;;;;;;;;;;;;;;;16.15;100.00;98081.47;5037391;28;20283;-82
2021/10/01 00:29:07;;;;;;;;;;;;;;;15.80;100.00;98083.34;4987638;28;19932;-82
2021/10/01 00:31:35;;;;;;;;;;;;;;;16.19;100.00;98079.22;5019952;28;19948;-81
2021/10/01 00:34:02;;;;;;;;;;;;;;;16.27;100.00;98068.34;5035728;28;19925;-82
2021/10/01 00:36:29;;;;;;;;;;;;;;;16.24;100.00;98066.50;5003058;28;20455;-81
2021/10/01 00:38:59;;;;;;;;;;;;;;;16.16;100.00;98068.19;5019804;28;19925;-82
2021/10/01 00:41:27;;;;;;;;;;;;;;;16.28;100.00;98067.88;5018997;28;20447;-81
2021/10/01 00:43:54;;;;;;;;;;;;;;;16.19;100.00;98062.31;4986790;28;20373;-81
2021/10/01 00:46:22;;;;;;;;;;;;;;;16.19;100.00;98059.50;5003002;28;19929;-82
2021/10/01 00:48:49;;;;;;;;;;;;;;;16.03;100.00;98050.75;5019305;28;19932;-81
2021/10/01 00:51:18;;;;;;;;;;;;;;;16.01;100.00;98059.69;5019083;28;19959;-82
2021/10/01 00:53:45;;;;;;;;;;;;;;;16.20;100.00;98057.47;5019003;28;19925;-81
2021/10/01 00:56:12;;;;;;;;;;;;;;;16.17;100.00;98045.16;5036731;28;20019;-81
2021/10/01 00:58:39;;;;;;;;;;;;;;;15.72;100.00;98045.53;5037172;28;19932;-81
2021/10/01 01:01:12;;;;;;;;;;;;;;;15.94;100.00;98054.44;5025182;28;19978;-82
2021/10/01 01:03:45;;;;;;;;;;;;;;;16.09;100.00;98038.34;5025474;28;19987;-82
2021/10/01 01:06:31;;;;;;;;;;;;;;;15.89;100.00;98043.84;5015966;28;20024;-81
2021/10/01 01:09:17;;;;;;;;;;;;;;;15.74;100.00;98045.06;5014510;28;19932;-82
2021/10/01 01:11:53;;;;;;;;;;;;;;;16.00;100.00;98049.69;5019365;28;20035;-82
2021/10/01 01:14:31;;;;;;;;;;;;;;;15.53;100.00;98035.69;5002743;28;20296;-82
2021/10/01 01:17:00;;;;;;;;;;;;;;;15.76;100.00;98048.19;5035726;28;20428;-81
2021/10/01 01:19:43;;;;;;;;;;;;;;;15.83;100.00;98042.16;4987074;28;19975;-82
2021/10/01 01:22:22;;;;;;;;;;;;;;;15.72;100.00;98028.66;5035488;28;19932;-82
2021/10/01 01:24:49;;;;;;;;;;;;;;;16.06;100.00;98028.03;5018861;28;19925;-83
2021/10/01 01:27:22;;;;;;;;;;;;;;;15.81;100.00;98028.56;5003654;28;19932;-81
2021/10/01 01:29:58;;;;;;;;;;;;;;;15.96;100.00;98022.97;5002228;28;20281;-81
2021/10/01 01:32:26;;;;;;;;;;;;;;;15.66;100.00;98021.38;5035606;28;19925;-80
2021/10/01 01:34:55;;;;;;;;;;;;;;;15.84;100.00;98021.22;5018102;28;19931;-81
2021/10/01 01:37:52;;;;;;;;;;;;;;;15.40;100.00;98015.50;5001961;28;19935;-81
2021/10/01 01:40:22;;;;;;;;;;;;;;;15.40;100.00;97997.81;5003722;28;20272;-81
2021/10/01 01:42:51;;;;;;;;;;;;;;;15.48;100.00;98008.22;5018166;28;19925;-81
2021/10/01 01:45:18;;;;;;;;;;;;;;;15.55;100.00;97993.00;5002314;28;20365;-81
2021/10/01 01:47:47;;;;;;;;;;;;;;;15.51;100.00;97998.03;5018323;28;19936;-81
2021/10/01 01:50:15;;;;;;;;;;;;;;;15.32;100.00;97971.25;5018527;28;20011;-81
2021/10/01 01:52:44;;;;;;;;;;;;;;;15.54;100.00;97966.88;5001104;28;20260;-81
2021/10/01 01:55:12;;;;;;;;;;;;;;;15.63;100.00;97957.59;5017990;28;19949;-81
2021/10/01 01:57:41;;;;;;;;;;;;;;;15.69;100.00;97956.41;5021889;28;19925;-81
2021/10/01 02:00:08;;;;;;;;;;;;;;;15.88;100.00;97959.81;5017996;28;19933;-81
2021/10/01 02:02:49;;;;;;;;;;;;;;;15.91;100.00;97939.13;4988172;28;19974;-81
2021/10/01 02:05:18;;;;;;;;;;;;;;;15.91;100.00;97945.56;5027216;28;19929;-81
2021/10/01 02:07:47;;;;;;;;;;;;;;;15.96;100.00;97921.56;5017645;28;20373;-81
2021/10/01 02:10:15;;;;;;;;;;;;;;;15.22;100.00;97936.78;5018212;28;20354;-81
2021/10/01 02:12:48;;;;;;;;;;;;;;;15.38;100.00;97922.31;5017477;28;20044;-81
2021/10/01 02:15:16;;;;;;;;;;;;;;;15.40;100.00;97922.59;5017966;28;19932;-81
2021/10/01 02:17:46;;;;;;;;;;;;;;;15.32;100.00;97917.78;4985615;28;19925;-81
2021/10/01 02:20:15;;;;;;;;;;;;;;;14.92;100.00;97907.00;5017937;28;19925;-81
2021/10/01 02:22:43;;;;;;;;;;;;;;;15.20;100.00;97914.00;5017362;28;19925;-81
2021/10/01 02:28:01;;;;;;;;;;;;;;;15.21;100.00;97895.06;5001189;28;19929;-81
2021/10/01 02:30:30;;;;;;;;;;;;;;;15.50;100.00;97884.66;5001190;28;20011;-81
2021/10/01 02:33:01;;;;;;;;;;;;;;;15.96;100.00;97887.75;5001140;28;19936;-81
2021/10/01 02:35:28;;;;;;;;;;;;;;;15.90;100.00;97882.00;5001386;28;19932;-81
2021/10/01 02:37:56;;;;;;;;;;;;;;;16.05;100.00;97871.50;5000849;28;19925;-81
2021/10/01 02:40:23;;;;;;;;;;;;;;;15.93;100.00;97854.94;5017271;28;19926;-81
2021/10/01 02:42:50;;;;;;;;;;;;;;;16.17;100.00;97853.53;5001254;28;19932;-81
2021/10/01 02:45:17;;;;;;;;;;;;;;;16.19;100.00;97839.69;4995799;28;20638;-81
2021/10/01 02:47:44;;;;;;;;;;;;;;;16.16;100.00;97839.94;5034254;28;19932;-81
2021/10/01 02:50:21;;;;;;;;;;;;;;;15.89;100.00;97826.94;5033434;28;20295;-81
2021/10/01 02:52:50;;;;;;;;;;;;;;;16.16;100.00;97825.84;5033114;28;19931;-81
2021/10/01 02:55:33;;;;;;;;;;;;;;;16.43;100.00;97821.84;5000868;28;19936;-81
2021/10/01 02:58:00;;;;;;;;;;;;;;;16.12;100.00;97822.44;5017380;28;20020;-81
2021/10/01 03:00:28;;;;;;;;;;;;;;;15.83;100.00;97817.63;4982094;28;20284;-81
2021/10/01 03:02:55;;;;;;;;;;;;;;;15.91;100.00;97823.66;5017017;28;20390;-81
2021/10/01 03:05:23;;;;;;;;;;;;;;;16.02;100.00;97824.59;5016944;28;19929;-81
2021/10/01 03:07:51;;;;;;;;;;;;;;;15.84;100.00;97824.81;5000420;28;19925;-81
2021/10/01 03:10:21;;;;;;;;;;;;;;;15.77;100.00;97830.06;5001056;28;20249;-81
2021/10/01 03:12:48;;;;;;;;;;;;;;;15.45;100.00;97831.84;5016926;28;19925;-81
2021/10/01 03:15:18;;;;;;;;;;;;;;;15.46;100.00;97819.34;5016349;28;19929;-81
2021/10/01 03:17:46;;;;;;;;;;;;;;;15.34;100.00;97806.28;5032760;28;19932;-81
2021/10/01 03:20:14;;;;;;;;;;;;;;;15.61;100.00;97816.50;4983968;28;19929;-81
2021/10/01 03:22:42;;;;;;;;;;;;;;;15.57;100.00;97813.88;5000209;28;20434;-81
2021/10/01 03:25:11;;;;;;;;;;;;;;;15.27;100.00;97809.50;4983824;28;19929;-80
2021/10/01 03:27:38;;;;;;;;;;;;;;;15.10;100.00;97799.97;5032085;28;19925;-81
2021/10/01 03:30:07;;;;;;;;;;;;;;;15.14;100.00;97811.03;4999741;28;19925;-80
2021/10/01 03:32:35;;;;;;;;;;;;;;;15.39;100.00;97810.47;5015772;28;19925;-80
2021/10/01 03:35:04;;;;;;;;;;;;;;;15.05;100.00;97803.47;5006407;28;20278;-80
2021/10/01 03:37:32;;;;;;;;;;;;;;;14.89;100.00;97806.75;5016068;28;19925;-80
2021/10/01 03:40:09;;;;;;;;;;;;;;;15.02;100.00;97810.06;5032571;28;19975;-80
2021/10/01 03:42:37;;;;;;;;;;;;;;;14.75;100.00;97812.34;4999661;28;19925;-80
2021/10/01 03:45:05;;;;;;;;;;;;;;;14.96;100.00;97814.81;5016548;28;19932;-80
2021/10/01 03:47:32;;;;;;;;;;;;;;;14.78;100.00;97809.34;5016416;28;19925;-81
2021/10/01 03:50:00;;;;;;;;;;;;;;;15.05;100.00;97800.66;5002564;28;20019;-81
2021/10/01 03:52:27;;;;;;;;;;;;;;;14.76;100.00;97803.44;5012712;28;20181;-81
2021/10/01 03:54:55;;;;;;;;;;;;;;;14.86;100.00;97813.31;4961132;28;19926;-81
2021/10/01 03:57:22;;;;;;;;;;;;;;;14.89;100.00;97812.34;4988054;28;19975;-81
2021/10/01 03:59:51;;;;;;;;;;;;;;;14.62;100.00;97804.16;5020682;28;19933;-80
2021/10/01 04:02:19;;;;;;;;;;;;;;;14.95;100.00;97807.63;5010611;28;19925;-81
2021/10/01 04:04:47;;;;;;;;;;;;;;;14.95;100.00;97802.00;4999896;28;20325;-80
2021/10/01 04:07:14;;;;;;;;;;;;;;;14.98;100.00;97801.03;5000306;28;19925;-80
2021/10/01 04:09:41;;;;;;;;;;;;;;;14.72;100.00;97800.03;5016709;28;20327;-80
2021/10/01 04:12:08;;;;;;;;;;;;;;;14.86;100.00;97802.06;5017565;28;19988;-80
2021/10/01 04:14:36;;;;;;;;;;;;;;;14.84;100.00;97796.19;5016793;28;19925;-80
2021/10/01 04:17:04;;;;;;;;;;;;;;;14.88;100.00;97805.19;4984764;28;20277;-81
2021/10/01 04:19:31;;;;;;;;;;;;;;;14.72;100.00;97808.47;5008700;28;19965;-80
2021/10/01 04:22:04;;;;;;;;;;;;;;;14.88;100.00;97810.81;5016017;28;19956;-80
2021/10/01 04:24:41;;;;;;;;;;;;;;;15.16;100.00;97808.53;4999830;28;20396;-80
2021/10/01 04:27:09;;;;;;;;;;;;;;;14.95;100.00;97810.44;4999995;28;20461;-80
2021/10/01 04:29:36;;;;;;;;;;;;;;;15.10;100.00;97807.66;4999591;28;19926;-81
2021/10/01 04:32:06;;;;;;;;;;;;;;;15.00;100.00;97809.78;5000239;28;19926;-81
2021/10/01 04:34:38;;;;;;;;;;;;;;;15.01;100.00;97805.69;5016214;28;20300;-80
2021/10/01 04:37:05;;;;;;;;;;;;;;;15.15;100.00;97796.50;4999547;28;19925;-81
2021/10/01 04:39:32;;;;;;;;;;;;;;;15.32;100.00;97789.13;4999918;28;20380;-81
2021/10/01 04:42:00;;;;;;;;;;;;;;;15.12;100.00;97786.22;5016283;28;20365;-81
2021/10/01 04:44:27;;;;;;;;;;;;;;;15.29;100.00;97787.28;5015927;28;20407;-81
2021/10/01 04:46:54;;;;;;;;;;;;;;;15.26;100.00;97779.81;5015786;28;19975;-81
2021/10/01 04:49:21;;;;;;;;;;;;;;;15.26;100.00;97764.97;5016152;28;19930;-81
2021/10/01 04:51:49;;;;;;;;;;;;;;;15.11;100.00;97762.16;5015704;28;19947;-81
2021/10/01 04:54:16;;;;;;;;;;;;;;;15.16;100.00;97769.91;4999655;28;20024;-81
2021/10/01 04:56:43;;;;;;;;;;;;;;;15.25;100.00;97772.63;4983494;28;19965;-81
2021/10/01 04:59:10;;;;;;;;;;;;;;;15.22;100.00;97767.97;5015849;28;20395;-81
2021/10/01 05:02:10;;;;;;;;;;;;;;;15.40;100.00;97762.19;4975529;28;19933;-81
2021/10/01 05:04:55;;;;;;;;;;;;;;;15.36;100.00;97758.75;4959245;28;19933;-81
2021/10/01 05:07:54;;;;;;;;;;;;;;;15.40;100.00;97755.78;4959322;28;20385;-81
2021/10/01 05:10:40;;;;;;;;;;;;;;;15.54;100.00;97749.34;4975452;28;19964;-81
2021/10/01 05:13:26;;;;;;;;;;;;;;;15.47;100.00;97750.53;4959485;28;19926;-81
2021/10/01 05:16:16;;;;;;;;;;;;;;;15.59;100.00;97746.63;4959065;28;20372;-81
2021/10/01 05:19:02;;;;;;;;;;;;;;;15.38;100.00;97752.66;4975649;28;19926;-81
2021/10/01 05:21:48;;;;;;;;;;;;;;;15.40;100.00;97738.88;4946092;28;20317;-80
2021/10/01 05:24:15;;;;;;;;;;;;;;;15.24;100.00;97742.94;4959113;28;19930;-80
2021/10/01 05:26:42;;;;;;;;;;;;;;;15.07;100.00;97733.44;4959018;28;19926;-80
2021/10/01 05:29:10;;;;;;;;;;;;;;;15.26;100.00;97757.31;4975459;28;20396;-81
2021/10/01 05:31:37;;;;;;;;;;;;;;;15.15;100.00;97759.91;4975040;28;20019;-81
2021/10/01 05:34:04;;;;;;;;;;;;;;;15.05;100.00;97769.72;4975300;28;20026;-81
2021/10/01 05:36:33;;;;;;;;;;;;;;;14.80;100.00;97764.66;4975434;28;20341;-80
2021/10/01 05:39:01;;;;;;;;;;;;;;;15.05;100.00;97780.97;5016962;28;19933;-80
2021/10/01 05:41:31;;;;;;;;;;;;;;;15.23;100.00;97769.53;5015113;28;20369;-80
2021/10/01 05:43:59;;;;;;;;;;;;;;;15.18;100.00;97766.59;5031206;28;20083;-81
2021/10/01 05:46:26;;;;;;;;;;;;;;;15.25;100.00;97772.63;4966848;28;20012;-80
2021/10/01 05:49:22;;;;;;;;;;;;;;;15.17;100.00;97759.44;5000104;28;19932;-81
2021/10/01 05:55:09;;;;;;;;;;;;;;;15.21;100.00;97772.03;4965490;28;19934;-82
2021/10/01 05:58:05;;;;;;;;;;;;;;;15.07;100.00;97761.56;4956788;28;19933;-81
2021/10/01 06:00:42;;;;;;;;;;;;;;;14.68;100.00;97760.06;4967839;28;20397;-83
2021/10/01 06:03:09;;;;;;;;;;;;;;;14.96;100.00;97761.38;4939609;29;20067;-83
2021/10/01 06:05:37;;;;;;;;;;;;;;;14.91;100.00;97759.22;4951890;29;19926;-80
2021/10/01 06:08:04;;;;;;;;;;;;;;;14.88;100.00;97760.19;4937110;29;19970;-82
2021/10/01 06:10:31;;;;;;;;;;;;;;;14.67;100.00;97750.09;4952357;29;19926;-83
2021/10/01 06:12:58;;;;;;;;;;;;;;;14.70;100.00;97751.94;4938122;29;19930;-83
2021/10/01 06:15:25;;;;;;;;;;;;;;;14.81;100.00;97766.22;4919663;29;19927;-83
2021/10/01 06:17:53;;;;;;;;;;;;;;;15.21;100.00;97768.44;4925129;29;19927;-83
2021/10/01 06:20:22;;;;;;;;;;;;;;;14.83;100.00;97769.31;4935707;29;19931;-83
2021/10/01 06:22:50;;;;;;;;;;;;;;;14.91;100.00;97769.69;4912390;29;19978;-83
2021/10/01 06:25:17;;;;;;;;;;;;;;;14.90;100.00;97756.91;4936280;28;20387;-83
2021/10/01 06:27:44;;;;;;;;;;;;;;;15.11;100.00;97759.34;4973935;28;20007;-83
2021/10/01 06:30:11;;;;;;;;;;;;;;;14.82;100.00;97766.97;5001672;28;19925;-83
2021/10/01 06:32:38;;;;;;;;;;;;;;;15.05;100.00;97758.47;4984394;28;19929;-83
2021/10/01 06:35:06;;;;;;;;;;;;;;;15.25;100.00;97769.81;5013849;28;19932;-79
2021/10/01 06:37:34;;;;;;;;;;;;;;;14.99;100.00;97768.06;5017635;28;20008;-91
2021/10/01 06:40:01;;;;;;;;;;;;;;;15.09;100.00;97770.31;4997911;28;19926;-91
2021/10/01 06:42:31;;;;;;;;;;;;;;;15.12;100.00;97760.88;4982747;28;19926;-90
2021/10/01 06:45:10;;;;;;;;;;;;;;;15.07;100.00;97761.56;4948214;28;20052;-90
2021/10/01 06:47:48;;;;;;;;;;;;;;;14.53;100.00;97762.06;4962645;28;19932;-92
2021/10/01 07:39:02;;;;;;;;;;;;;;;14.86;100.00;97751.47;4994350;28;19933;-88
2021/10/01 08:19:47;;;;;;;;;;;;;;;16.70;100.00;97776.34;4948900;28;20013;-84
2021/10/01 08:22:14;;;;;;;;;;;;;;;16.88;100.00;97788.09;4937500;28;19974;-85
2021/10/01 08:24:41;;;;;;;;;;;;;;;16.64;100.00;97756.53;4965851;28;19925;-84
2021/10/01 08:27:09;;;;;;;;;;;;;;;16.01;100.00;97783.59;4996179;28;19943;-84
2021/10/01 08:29:36;;;;;;;;;;;;;;;16.14;100.00;97784.06;5012313;28;19926;-84
2021/10/01 08:32:03;;;;;;;;;;;;;;;16.86;100.00;97795.47;5012211;28;19926;-84
2021/10/01 08:34:31;;;;;;;;;;;;;;;17.27;100.00;97785.66;5013336;28;19932;-84
2021/10/01 08:36:59;;;;;;;;;;;;;;;16.55;100.00;97784.88;4995893;28;19960;-83
2021/10/01 08:39:26;;;;;;;;;;;;;;;16.35;100.00;97798.94;4982474;28;19957;-84
2021/10/01 08:41:56;;;;;;;;;;;;;;;16.03;100.00;97808.47;5029097;28;19926;-83
2021/10/01 08:44:25;;;;;;;;;;;;;;;16.06;100.00;97799.81;4996227;28;20277;-83
2021/10/01 08:46:52;;;;;;;;;;;;;;;15.85;100.00;97809.50;5015260;28;20388;-83
2021/10/01 08:49:23;;;;;;;;;;;;;;;15.78;100.00;97809.13;5017109;28;20090;-83
2021/10/01 08:51:50;;;;;;;;;;;;;;;15.79;100.00;97814.25;4999317;28;19932;-84
2021/10/01 08:54:18;;;;;;;;;;;;;;;15.27;100.00;97826.38;5016569;28;19948;-83
2021/10/01 08:56:45;;;;;;;;;;;;;;;15.16;100.00;97825.41;4999439;28;20332;-84
2021/10/01 08:59:12;;;;;;;;;;;;;;;15.06;100.00;97841.59;4988204;28;19925;-84
2021/10/01 09:01:39;;;;;;;;;;;;;;;15.08;100.00;97836.25;4982905;28;20016;-83
2021/10/01 09:04:09;;;;;;;;;;;;;;;15.08;100.00;97829.84;4989825;28;19926;-83
2021/10/01 09:06:38;;;;;;;;;;;;;;;15.19;100.00;97835.69;5003991;28;20419;-84
2021/10/01 09:09:05;;;;;;;;;;;;;;;14.91;100.00;97843.59;5015446;28;19934;-84
2021/10/01 09:11:34;;;;;;;;;;;;;;;14.64;100.00;97843.81;5017032;28;19926;-83
2021/10/01 09:14:10;;;;;;;;;;;;;;;14.53;100.00;97835.16;5032001;28;19926;-83
2021/10/01 09:16:38;;;;;;;;;;;;;;;14.66;100.00;97848.97;5015255;28;19932;-83
2021/10/01 09:19:06;;;;;;;;;;;;;;;14.48;100.00;97850.63;5016746;28;19925;-83
2021/10/01 09:21:44;;;;;;;;;;;;;;;14.71;100.00;97851.88;5016384;28;19929;-83
2021/10/01 09:24:13;;;;;;;;;;;;;;;14.87;100.00;97871.13;4985577;28;20266;-83
2021/10/01 09:26:49;;;;;;;;;;;;;;;14.36;100.00;97871.31;5015507;28;19929;-84
2021/10/01 09:29:33;;;;;;;;;;;;;;;13.80;100.00;97868.44;4969561;28;20427;-84
2021/10/01 09:32:01;;;;;;;;;;;;;;;13.39;100.00;97876.81;4982522;28;19933;-83
2021/10/01 09:34:33;;;;;;;;;;;;;;;13.53;100.00;97876.94;5014995;28;19960;-83
2021/10/01 09:37:04;;;;;;;;;;;;;;;13.47;100.00;97880.84;5014821;28;19933;-84
2021/10/01 09:39:33;;;;;;;;;;;;;;;13.70;100.00;97889.38;5002264;28;19925;-83
2021/10/01 09:42:09;;;;;;;;;;;;;;;13.48;100.00;97882.41;5031383;28;19932;-83
2021/10/01 09:44:42;;;;;;;;;;;;;;;13.91;100.00;97885.56;4986352;28;19925;-83
2021/10/01 09:47:09;;;;;;;;;;;;;;;14.50;100.00;97883.88;5014760;28;20300;-83
2021/10/01 09:49:36;;;;;;;;;;;;;;;14.46;100.00;97880.47;4995051;28;20020;-83
2021/10/01 09:52:03;;;;;;;;;;;;;;;14.12;100.00;97894.97;5006374;28;19957;-83
2021/10/01 09:54:30;;;;;;;;;;;;;;;13.96;100.00;97890.53;4995191;28;19932;-83
2021/10/01 09:57:02;;;;;;;;;;;;;;;13.81;100.00;97895.25;5001603;28;19932;-84
2021/10/01 09:59:30;;;;;;;;;;;;;;;13.77;100.00;97902.28;5028062;28;19929;-84
2021/10/01 10:02:03;;;;;;;;;;;;;;;13.88;100.00;97896.94;4978549;28;19932;-85
2021/10/01 10:04:32;;;;;;;;;;;;;;;14.12;100.00;97917.44;4981893;28;19925;-85
2021/10/01 10:07:13;;;;;;;;;;;;;;;14.28;100.00;97914.28;5014341;28;19929;-82
2021/10/01 10:09:42;;;;;;;;;;;;;;;14.33;100.00;97919.25;5014643;28;19925;-83
2021/10/01 10:12:10;;;;;;;;;;;;;;;14.20;100.00;97913.03;5015503;28;19936;-82
2021/10/01 10:14:42;;;;;;;;;;;;;;;14.44;100.00;97909.06;5015593;28;19926;-82
2021/10/01 10:17:16;;;;;;;;;;;;;;;14.77;100.00;97923.06;5016438;28;20034;-83
2021/10/01 10:19:45;;;;;;;;;;;;;;;14.89;100.00;97907.97;4999754;28;19925;-82
2021/10/01 10:22:13;;;;;;;;;;;;;;;15.04;100.00;97920.03;4999152;28;19926;-82
2021/10/01 10:24:40;;;;;;;;;;;;;;;14.14;100.00;97912.13;4996215;28;19926;-82
2021/10/01 10:27:08;;;;;;;;;;;;;;;13.91;100.00;97915.66;5010695;28;19933;-83
2021/10/01 10:29:36;;;;;;;;;;;;;;;13.81;100.00;97937.34;4997854;28;19972;-84
2021/10/01 10:32:06;;;;;;;;;;;;;;;13.81;100.00;97942.22;5015025;28;19929;-85
2021/10/01 10:34:33;;;;;;;;;;;;;;;14.04;100.00;97947.13;5012455;28;20217;-84
2021/10/01 10:37:05;;;;;;;;;;;;;;;13.44;100.00;97909.84;4994409;28;19925;-84
2021/10/01 10:39:34;;;;;;;;;;;;;;;13.97;100.00;97934.22;5001259;28;19926;-94
2021/10/01 10:42:06;;;;;;;;;;;;;;;13.97;100.00;97927.81;4983478;28;19926;-93
2021/10/01 10:44:42;;;;;;;;;;;;;;;14.09;100.00;97936.03;4983258;28;19964;-92
2021/10/01 10:47:10;;;;;;;;;;;;;;;14.33;100.00;97938.91;4982546;28;20388;-93
2021/10/01 10:49:37;;;;;;;;;;;;;;;13.72;100.00;97945.78;4979094;28;19931;-81
2021/10/01 10:52:18;;;;;;;;;;;;;;;13.53;100.00;97941.47;5022753;28;20448;-81
2021/10/01 10:54:49;;;;;;;;;;;;;;;13.50;100.00;97938.81;5011609;28;19931;-81
2021/10/01 10:57:21;;;;;;;;;;;;;;;13.48;100.00;97952.56;5034406;28;19925;-81
2021/10/01 10:59:49;;;;;;;;;;;;;;;13.51;100.00;97946.00;5017488;28;19947;-81
2021/10/01 11:02:25;;;;;;;;;;;;;;;13.21;100.00;97952.59;4984262;28;19925;-81
2021/10/01 11:05:12;;;;;;;;;;;;;;;13.55;100.00;97967.06;5000344;28;20684;-81
2021/10/01 11:07:54;;;;;;;;;;;;;;;13.92;100.00;97965.72;5000556;28;20055;-81
2021/10/01 11:10:34;;;;;;;;;;;;;;;13.65;100.00;97979.03;5034394;28;19940;-81
2021/10/01 11:13:18;;;;;;;;;;;;;;;13.89;100.00;97975.09;5016593;28;19931;-81
2021/10/01 11:16:03;;;;;;;;;;;;;;;14.15;100.00;97970.66;5000473;28;19925;-81
2021/10/01 11:18:31;;;;;;;;;;;;;;;14.08;100.00;97956.16;5000468;28;19925;-84
2021/10/01 11:20:58;;;;;;;;;;;;;;;14.27;100.00;97958.47;5000403;28;20027;-88
2021/10/01 11:23:25;;;;;;;;;;;;;;;14.18;100.00;97974.53;5000087;28;19932;-86
2021/10/01 11:25:53;;;;;;;;;;;;;;;14.47;100.00;97971.94;5000229;28;19929;-86
2021/10/01 11:28:32;;;;;;;;;;;;;;;14.99;100.00;97979.00;5016453;28;19932;-86
2021/10/01 11:30:59;;;;;;;;;;;;;;;15.05;100.00;97972.25;4984015;28;19940;-87
2021/10/01 11:33:26;;;;;;;;;;;;;;;15.18;100.00;97964.34;5004348;28;19925;-87
2021/10/01 11:35:55;;;;;;;;;;;;;;;14.84;100.00;97981.75;5033077;28;19925;-80
2021/10/01 11:38:23;;;;;;;;;;;;;;;14.86;100.00;97981.28;5033816;28;20268;-79
2021/10/01 11:41:01;;;;;;;;;;;;;;;14.56;100.00;97997.22;5015886;28;19929;-79
2021/10/01 11:43:30;;;;;;;;;;;;;;;14.44;100.00;97984.16;5000254;28;19933;-79
2021/10/01 11:45:58;;;;;;;;;;;;;;;14.60;100.00;97997.81;5016128;28;19975;-79
2021/10/01 11:48:31;;;;;;;;;;;;;;;14.85;100.00;98002.22;5015984;28;20019;-79
2021/10/01 11:50:59;;;;;;;;;;;;;;;14.67;100.00;97991.06;5015966;28;19926;-79
2021/10/01 11:53:31;;;;;;;;;;;;;;;14.63;100.00;97985.59;5032506;28;20016;-79
2021/10/01 11:56:01;;;;;;;;;;;;;;;14.57;100.00;97984.69;5015943;28;20424;-80
2021/10/01 11:58:30;;;;;;;;;;;;;;;14.86;100.00;98000.97;5016336;28;19968;-79
2021/10/01 12:01:10;;;;;;;;;;;;;;;15.14;100.00;98003.13;5015979;28;19932;-78
2021/10/01 12:03:48;;;;;;;;;;;;;;;14.89;100.00;98003.59;5034020;28;19925;-83
2021/10/01 12:06:20;;;;;;;;;;;;;;;14.58;100.00;97999.53;5015976;28;19933;-84
2021/10/01 12:08:56;;;;;;;;;;;;;;;14.83;100.00;97988.63;5033677;28;20020;-83
2021/10/01 12:11:25;;;;;;;;;;;;;;;15.04;100.00;97993.19;4982078;28;20377;-83
2021/10/01 12:13:52;;;;;;;;;;;;;;;15.13;100.00;98006.44;5014759;28;20316;-83
2021/10/01 12:16:20;;;;;;;;;;;;;;;14.82;100.00;97995.50;4998161;28;19936;-83
2021/10/01 12:18:57;;;;;;;;;;;;;;;15.02;100.00;97992.13;4982531;28;19932;-83
2021/10/01 12:21:26;;;;;;;;;;;;;;;15.61;100.00;98007.97;5033661;28;20218;-83
2021/10/01 12:23:59;;;;;;;;;;;;;;;15.53;100.00;98018.03;5014570;28;19991;-83
2021/10/01 12:26:26;;;;;;;;;;;;;;;15.18;100.00;98009.34;5025719;28;20376;-83
2021/10/01 12:28:56;;;;;;;;;;;;;;;15.57;100.00;98008.13;5018319;28;20293;-83
2021/10/01 12:31:23;;;;;;;;;;;;;;;15.71;100.00;98007.41;5001958;28;20440;-83
2021/10/01 12:33:50;;;;;;;;;;;;;;;15.76;100.00;98014.38;5018256;28;20285;-83
2021/10/01 12:36:21;;;;;;;;;;;;;;;15.58;100.00;98012.53;4982641;28;19926;-83
2021/10/01 12:38:51;;;;;;;;;;;;;;;15.85;100.00;98011.50;5029369;28;20079;-82
2021/10/01 12:41:18;;;;;;;;;;;;;;;15.74;100.00;98008.44;4986260;28;19926;-83
2021/10/01 12:43:47;;;;;;;;;;;;;;;15.89;100.00;98007.22;5011927;28;19925;-83
2021/10/01 12:46:34;;;;;;;;;;;;;;;16.22;100.00;98013.44;5004479;28;19931;-83
2021/10/01 12:49:11;;;;;;;;;;;;;;;16.47;100.00;98005.69;5001451;28;19975;-83
2021/10/01 12:51:39;;;;;;;;;;;;;;;16.69;100.00;97994.75;5017761;28;19925;-83
2021/10/01 12:54:22;;;;;;;;;;;;;;;16.52;100.00;98005.00;5035592;28;19925;-83
2021/10/01 12:57:08;;;;;;;;;;;;;;;16.87;100.00;98012.22;5017827;28;20381;-83
2021/10/01 12:59:43;;;;;;;;;;;;;;;16.20;100.00;97996.25;5035314;28;19925;-82
2021/10/01 13:02:12;;;;;;;;;;;;;;;16.23;100.00;98019.88;5018166;28;19940;-82
2021/10/01 13:04:45;;;;;;;;;;;;;;;16.02;100.00;98021.78;5001509;28;19929;-82
2021/10/01 13:07:23;;;;;;;;;;;;;;;15.68;100.00;98030.88;5017486;28;20280;-82
2021/10/01 13:09:50;;;;;;;;;;;;;;;15.78;100.00;98034.41;5017528;28;19936;-82
2021/10/01 13:12:30;;;;;;;;;;;;;;;15.61;100.00;98034.09;5035337;28;19925;-82
2021/10/01 13:15:07;;;;;;;;;;;;;;;15.79;100.00;98033.13;5017441;28;20273;-82
2021/10/01 13:17:34;;;;;;;;;;;;;;;15.67;100.00;98034.97;5001318;28;19925;-82
2021/10/01 13:20:02;;;;;;;;;;;;;;;15.72;100.00;98037.09;5015092;28;20059;-82
2021/10/01 13:22:50;;;;;;;;;;;;;;;15.50;100.00;98025.41;5000958;28;19929;-82
2021/10/01 13:25:27;;;;;;;;;;;;;;;15.37;100.00;98038.94;5010328;28;19947;-82
2021/10/01 13:27:55;;;;;;;;;;;;;;;15.78;100.00;98034.41;4984824;28;19932;-82
2021/10/01 13:30:23;;;;;;;;;;;;;;;16.04;100.00;98043.84;5017054;28;19998;-82
2021/10/01 13:32:50;;;;;;;;;;;;;;;16.14;100.00;98051.75;5016781;28;20476;-82
2021/10/01 13:35:18;;;;;;;;;;;;;;;16.70;100.00;98049.91;4981446;28;20036;-83
2021/10/01 13:37:46;;;;;;;;;;;;;;;16.51;100.00;98054.22;5019964;28;19925;-82
2021/10/01 13:40:14;;;;;;;;;;;;;;;15.99;100.00;98062.19;5000803;28;19932;-82
2021/10/01 13:42:41;;;;;;;;;;;;;;;16.02;100.00;98061.22;5034594;28;19925;-82
2021/10/01 13:45:08;;;;;;;;;;;;;;;16.28;100.00;98050.19;5034473;28;19947;-82
2021/10/01 13:47:36;;;;;;;;;;;;;;;16.08;100.00;98050.84;5016745;28;19928;-82
2021/10/01 13:50:04;;;;;;;;;;;;;;;15.85;100.00;98060.16;5034543;28;20381;-82
2021/10/01 13:52:31;;;;;;;;;;;;;;;16.17;100.00;98056.41;4984124;28;19964;-83
2021/10/01 13:54:58;;;;;;;;;;;;;;;16.05;100.00;98057.44;5000341;28;20318;-82
2021/10/01 13:57:25;;;;;;;;;;;;;;;16.44;100.00;98058.19;5034262;28;20333;-82
2021/10/01 13:59:53;;;;;;;;;;;;;;;15.78;100.00;98068.97;5016550;28;20293;-82
2021/10/01 14:02:20;;;;;;;;;;;;;;;16.07;100.00;98074.66;5016632;28;19967;-83
2021/10/01 14:04:48;;;;;;;;;;;;;;;15.79;100.00;98064.91;5000547;28;20027;-82
2021/10/01 14:07:15;;;;;;;;;;;;;;;15.99;100.00;98065.03;5033982;28;20372;-82
2021/10/01 14:09:43;;;;;;;;;;;;;;;15.88;100.00;98064.03;5032857;28;19925;-82
2021/10/01 14:12:11;;;;;;;;;;;;;;;16.18;100.00;98066.41;5000225;28;19935;-82
2021/10/01 14:14:38;;;;;;;;;;;;;;;16.13;100.00;98067.09;4999814;28;20380;-82
2021/10/01 14:17:05;;;;;;;;;;;;;;;16.08;100.00;98056.47;5016710;28;19932;-82
2021/10/01 14:19:32;;;;;;;;;;;;;;;16.52;100.00;98058.56;5016368;28;20483;-82
2021/10/01 14:21:59;;;;;;;;;;;;;;;16.37;100.00;98066.22;5015973;28;19925;-82
2021/10/01 14:24:26;;;;;;;;;;;;;;;16.08;100.00;98064.16;4999984;28;19979;-82
2021/10/01 14:26:53;;;;;;;;;;;;;;;16.44;100.00;98060.22;5015786;28;19925;-82